Terminal Aerodrome Forecast
Issued by NWS

Home | Current Version | Previous Version | Text Only | Print | Product List | Glossary On
Versions: 1 2 3 4 5 6 7 8 9 10 11 12 13 14 15 16
000
FTUS41 KBGM 271400 AAA
TAFRME
TAF AMD
KRME 271406Z 2714/2812 27004KT P6SM SCT015 BKN025
      TEMPO 2714/2716 BKN015 OVC025
     FM271800 29008KT P6SM BKN040
     FM280000 28004KT P6SM FEW060=

USA.gov is the U.S. government's official web portal to all federal, state and local government web resources and services.